createdAt,value
2022-08-14T00:01:23.951Z,21.99
2022-08-14T00:04:35.218Z,21.97
2022-08-14T00:07:21.701Z,21.91
2022-08-14T00:10:51.492Z,21.97
2022-08-14T00:13:24.364Z,21.94
2022-08-14T00:16:41.434Z,21.93
2022-08-14T00:19:24.261Z,21.87
2022-08-14T00:22:44.239Z,21.84
2022-08-14T00:25:41.834Z,21.83
2022-08-14T00:28:32.715Z,21.83
2022-08-14T00:31:34.708Z,21.86
2022-08-14T00:34:36.919Z,21.81
2022-08-14T00:37:35.836Z,21.81
2022-08-14T00:40:32.936Z,21.75
2022-08-14T00:43:22.328Z,21.70
2022-08-14T00:46:32.219Z,21.72
2022-08-14T00:49:21.257Z,21.65
2022-08-14T00:52:10.715Z,21.63
2022-08-14T00:55:02.740Z,21.58
2022-08-14T00:58:11.052Z,21.62
2022-08-14T01:01:00.264Z,21.55
2022-08-14T01:03:52.950Z,21.50
2022-08-14T01:06:41.938Z,21.49
2022-08-14T01:09:33.246Z,21.48
2022-08-14T01:12:26.913Z,21.41
2022-08-14T01:15:21.417Z,21.42
2022-08-14T01:19:01.281Z,21.42
2022-08-14T01:21:52.933Z,21.37
2022-08-14T01:24:43.587Z,21.36
2022-08-14T01:27:32.202Z,21.34
2022-08-14T01:30:41.925Z,21.29
2022-08-14T01:33:30.964Z,21.32
2022-08-14T01:36:39.836Z,21.30
2022-08-14T01:39:32.180Z,21.31
2022-08-14T01:42:32.094Z,21.32
2022-08-14T01:45:25.514Z,21.25
2022-08-14T01:48:16.063Z,21.22
2022-08-14T01:51:19.147Z,21.18
2022-08-14T01:54:10.763Z,21.15
2022-08-14T01:57:04.101Z,21.16
2022-08-14T01:59:57.439Z,21.10
2022-08-14T02:02:46.425Z,21.08
2022-08-14T02:05:38.336Z,21.01
2022-08-14T02:08:34.673Z,20.95
2022-08-14T02:11:24.526Z,20.71
2022-08-14T02:14:15.012Z,20.94
2022-08-14T02:17:20.286Z,20.87
2022-08-14T02:20:13.921Z,20.83
2022-08-14T02:23:02.605Z,20.82
2022-08-14T02:25:54.521Z,20.77
2022-08-14T02:28:58.110Z,20.75
2022-08-14T02:31:52.567Z,20.72
2022-08-14T02:34:41.358Z,20.73
2022-08-14T02:37:47.570Z,20.78
2022-08-14T02:40:37.839Z,20.76
2022-08-14T02:43:36.690Z,20.68
2022-08-14T02:46:34.477Z,20.62
2022-08-14T02:49:33.924Z,20.58
2022-08-14T02:52:56.441Z,20.47
2022-08-14T02:55:32.319Z,20.40
2022-08-14T02:58:30.508Z,20.35
2022-08-14T03:01:23.958Z,20.37
2022-08-14T03:04:13.513Z,20.38
2022-08-14T03:07:07.562Z,20.41
2022-08-14T03:10:27.710Z,20.42
2022-08-14T03:13:06.126Z,20.24
2022-08-14T03:16:02.246Z,20.06
2022-08-14T03:19:00.352Z,19.89
2022-08-14T03:21:52.973Z,19.74
2022-08-14T03:24:43.022Z,19.49
2022-08-14T03:27:35.129Z,19.56
2022-08-14T03:30:39.428Z,19.47
2022-08-14T03:33:38.429Z,19.43
2022-08-14T03:37:51.227Z,19.48
2022-08-14T03:39:38.299Z,19.51
2022-08-14T03:42:35.653Z,18.76
2022-08-14T03:45:34.780Z,19.25
2022-08-14T03:48:30.499Z,19.12
2022-08-14T03:51:19.544Z,18.93
2022-08-14T03:54:09.307Z,18.77
2022-08-14T03:57:04.147Z,18.78
2022-08-14T03:59:53.563Z,18.70
2022-08-14T04:02:47.068Z,18.60
2022-08-14T04:05:43.445Z,18.46
2022-08-14T04:08:38.015Z,18.36
2022-08-14T04:11:26.324Z,18.28
2022-08-14T04:14:15.233Z,18.23
2022-08-14T04:17:04.859Z,18.21
2022-08-14T04:19:59.419Z,18.16
2022-08-14T04:22:47.555Z,18.15
2022-08-14T04:25:36.427Z,18.07
2022-08-14T04:29:08.582Z,17.97
2022-08-14T04:33:01.834Z,17.90
2022-08-14T04:34:46.742Z,17.77
2022-08-14T04:37:57.786Z,17.72
2022-08-14T04:41:03.490Z,17.53
2022-08-14T04:43:53.587Z,17.65
2022-08-14T04:47:01.646Z,17.65
2022-08-14T04:49:56.987Z,17.66
2022-08-14T04:52:49.274Z,17.71
2022-08-14T04:55:47.780Z,17.80
2022-08-14T04:58:40.482Z,17.86
2022-08-14T05:01:29.113Z,17.94
2022-08-14T05:04:27.792Z,17.99
2022-08-14T05:07:17.670Z,18.00
2022-08-14T05:10:13.065Z,18.00
2022-08-14T05:13:24.369Z,18.02
2022-08-14T05:16:14.691Z,18.04
2022-08-14T05:19:17.871Z,18.04
2022-08-14T05:22:16.393Z,18.09
2022-08-14T05:25:09.054Z,18.14
2022-08-14T05:28:00.466Z,18.21
2022-08-14T05:30:50.411Z,18.28
2022-08-14T05:33:39.289Z,18.39
2022-08-14T05:36:27.823Z,18.53
2022-08-14T05:39:18.469Z,18.68
2022-08-14T05:42:21.359Z,18.86
2022-08-14T05:45:10.948Z,19.10
2022-08-14T05:48:01.546Z,19.32
2022-08-14T05:50:49.913Z,19.56
2022-08-14T05:53:42.367Z,19.84
2022-08-14T05:56:30.808Z,19.97
2022-08-14T05:59:36.340Z,20.39
2022-08-14T06:02:26.922Z,20.63
2022-08-14T06:05:17.487Z,20.77
2022-08-14T06:08:36.518Z,20.96
2022-08-14T06:11:31.138Z,21.13
2022-08-14T06:14:24.033Z,21.35
2022-08-14T06:17:25.675Z,21.50
2022-08-14T06:20:15.951Z,21.65
2022-08-14T06:23:10.209Z,21.72
2022-08-14T06:25:58.363Z,21.84
2022-08-14T06:28:47.088Z,21.82
2022-08-14T06:31:36.407Z,21.90
2022-08-14T06:35:02.225Z,22.06
2022-08-14T06:37:40.235Z,22.17
2022-08-14T06:40:34.438Z,22.28
2022-08-14T06:43:27.085Z,22.27
2022-08-14T06:46:23.187Z,22.25
2022-08-14T06:49:27.038Z,22.48
2022-08-14T06:52:16.508Z,22.53
2022-08-14T06:55:05.743Z,22.70
2022-08-14T06:57:55.326Z,22.79
2022-08-14T07:01:04.737Z,23.00
2022-08-14T07:04:12.779Z,23.18
2022-08-14T07:07:12.714Z,23.56
2022-08-14T07:10:01.379Z,23.75
2022-08-14T07:13:00.761Z,23.83
2022-08-14T07:15:55.102Z,23.89
2022-08-14T07:18:43.547Z,24.12
2022-08-14T07:21:33.045Z,24.10
2022-08-14T07:24:26.473Z,24.37
2022-08-14T07:27:19.866Z,24.71
2022-08-14T07:30:34.300Z,25.08
2022-08-14T07:33:24.560Z,25.33
2022-08-14T07:36:27.905Z,25.55
2022-08-14T07:39:18.642Z,25.81
2022-08-14T07:42:22.567Z,26.00
2022-08-14T07:45:11.866Z,26.37
2022-08-14T07:47:59.967Z,26.85
2022-08-14T07:50:50.567Z,27.29
2022-08-14T07:53:41.224Z,27.08
2022-08-14T07:56:44.140Z,27.27
2022-08-14T07:59:42.202Z,27.31
2022-08-14T08:02:32.819Z,27.46
2022-08-14T08:05:24.229Z,27.23
2022-08-14T08:08:26.824Z,27.29
2022-08-14T08:11:16.559Z,27.16
2022-08-14T08:14:10.392Z,27.19
2022-08-14T08:17:06.797Z,27.35
2022-08-14T08:19:55.019Z,27.31
2022-08-14T08:22:48.421Z,27.55
2022-08-14T08:25:41.090Z,27.91
2022-08-14T08:28:29.208Z,27.95
2022-08-14T08:31:17.309Z,28.07
2022-08-14T08:34:14.387Z,28.26
2022-08-14T08:37:07.294Z,28.47
2022-08-14T08:40:03.403Z,28.69
2022-08-14T08:42:53.306Z,28.77
2022-08-14T08:45:45.115Z,29.15
2022-08-14T08:48:53.869Z,29.17
2022-08-14T08:51:42.940Z,29.36
2022-08-14T08:54:31.779Z,29.28
2022-08-14T08:57:21.329Z,29.45
2022-08-14T09:00:24.673Z,29.35
2022-08-14T09:03:20.323Z,29.59
2022-08-14T09:07:00.316Z,29.82
2022-08-14T09:09:22.315Z,29.85
2022-08-14T09:12:13.884Z,29.97
2022-08-14T09:15:04.371Z,30.14
2022-08-14T09:18:00.921Z,30.41
2022-08-14T09:20:51.485Z,30.32
2022-08-14T09:24:28.616Z,30.06
2022-08-14T09:26:52.928Z,29.61
2022-08-14T09:29:42.100Z,29.85
2022-08-14T09:32:58.619Z,30.14
2022-08-14T09:35:58.230Z,30.87
2022-08-14T09:38:53.586Z,31.18
2022-08-14T09:42:21.346Z,30.77
2022-08-14T09:45:16.646Z,30.74
2022-08-14T09:48:16.411Z,30.83
2022-08-14T09:54:19.035Z,30.65
2022-08-14T09:57:13.969Z,30.88
2022-08-14T10:00:30.435Z,31.11
2022-08-14T10:03:33.077Z,31.28
2022-08-14T10:06:25.227Z,31.67
2022-08-14T10:09:17.072Z,31.82
2022-08-14T10:12:06.765Z,32.00
2022-08-14T10:15:18.104Z,31.98
2022-08-14T10:18:09.584Z,32.06
2022-08-14T10:21:09.754Z,32.00
2022-08-14T10:23:57.896Z,31.75
2022-08-14T10:27:00.604Z,31.59
2022-08-14T10:29:51.002Z,31.84
2022-08-14T10:32:51.837Z,31.73
2022-08-14T10:35:41.756Z,31.46
2022-08-14T10:38:37.467Z,31.24
2022-08-14T10:41:46.691Z,31.40
2022-08-14T10:44:38.835Z,31.70
2022-08-14T10:48:06.946Z,32.12
2022-08-14T10:50:51.359Z,32.33
2022-08-14T10:53:40.131Z,31.99
2022-08-14T10:56:35.118Z,32.15
2022-08-14T10:59:23.364Z,32.40
2022-08-14T11:02:45.062Z,32.50
2022-08-14T11:05:41.759Z,32.72
2022-08-14T11:08:34.951Z,32.29
2022-08-14T11:11:25.181Z,33.15
2022-08-14T11:14:22.460Z,33.25
2022-08-14T11:17:11.568Z,33.11
2022-08-14T11:20:01.508Z,32.49
2022-08-14T11:22:57.780Z,32.84
2022-08-14T11:25:53.298Z,32.91
2022-08-14T11:28:46.820Z,32.65
2022-08-14T11:31:39.339Z,32.75
2022-08-14T11:34:31.855Z,32.90
2022-08-14T11:37:33.888Z,33.17
2022-08-14T11:40:30.592Z,33.13
2022-08-14T11:43:29.207Z,33.59
2022-08-14T11:46:29.932Z,33.57
2022-08-14T11:49:27.214Z,33.36
2022-08-14T11:52:22.839Z,33.49
2022-08-14T11:55:15.044Z,33.41
2022-08-14T11:58:05.929Z,33.65
2022-08-14T12:00:58.690Z,33.43
2022-08-14T12:03:51.991Z,33.35
2022-08-14T12:06:49.702Z,32.83
2022-08-14T12:09:42.840Z,33.40
2022-08-14T12:12:47.294Z,33.57
2022-08-14T12:15:37.806Z,33.57
2022-08-14T12:18:37.082Z,33.95
2022-08-14T12:21:32.219Z,33.95
2022-08-14T12:24:36.822Z,33.99
2022-08-14T12:27:51.834Z,33.89
2022-08-14T12:30:44.323Z,33.69
2022-08-14T12:33:34.404Z,33.71
2022-08-14T12:36:22.693Z,33.14
2022-08-14T12:39:19.992Z,33.23
2022-08-14T12:42:11.587Z,33.54
2022-08-14T12:45:16.641Z,33.35
2022-08-14T12:48:20.753Z,33.08
2022-08-14T12:51:21.762Z,32.88
2022-08-14T12:54:27.750Z,33.54
2022-08-14T12:57:20.395Z,33.93
2022-08-14T13:00:23.028Z,33.74
2022-08-14T13:03:24.329Z,33.87
2022-08-14T13:06:15.530Z,34.15
2022-08-14T13:09:07.815Z,33.38
2022-08-14T13:12:34.965Z,32.64
2022-08-14T13:15:13.815Z,33.41
2022-08-14T13:18:04.717Z,33.22
2022-08-14T13:20:57.918Z,33.03
2022-08-14T13:23:49.662Z,33.21
2022-08-14T13:26:43.524Z,33.22
2022-08-14T13:29:41.118Z,32.83
2022-08-14T13:32:39.352Z,32.47
2022-08-14T13:35:27.765Z,32.68
2022-08-14T13:38:20.337Z,33.79
2022-08-14T13:41:08.999Z,34.66
2022-08-14T13:44:00.454Z,34.69
2022-08-14T13:46:49.565Z,34.85
2022-08-14T13:49:40.363Z,35.26
2022-08-14T13:52:54.799Z,35.47
2022-08-14T13:55:45.115Z,35.44
2022-08-14T13:58:40.351Z,35.15
2022-08-14T14:01:42.860Z,35.01
2022-08-14T14:04:33.234Z,35.05
2022-08-14T14:07:23.338Z,35.15
2022-08-14T14:10:13.321Z,35.00
2022-08-14T14:13:02.622Z,34.41
2022-08-14T14:15:58.377Z,33.73
2022-08-14T14:18:52.207Z,33.31
2022-08-14T14:21:41.797Z,33.76
2022-08-14T14:24:34.798Z,33.85
2022-08-14T14:27:42.432Z,33.40
2022-08-14T14:30:51.694Z,32.80
2022-08-14T14:33:47.628Z,32.60
2022-08-14T14:36:40.621Z,32.91
2022-08-14T14:39:29.864Z,33.19
2022-08-14T14:42:32.424Z,33.63
2022-08-14T14:45:24.339Z,33.74
2022-08-14T14:48:13.052Z,33.99
2022-08-14T14:51:04.421Z,34.14
2022-08-14T14:53:54.115Z,34.41
2022-08-14T14:56:51.117Z,34.34
2022-08-14T14:59:40.709Z,34.04
2022-08-14T15:02:36.508Z,34.48
2022-08-14T15:05:28.494Z,34.31
2022-08-14T15:08:17.141Z,33.87
2022-08-14T15:11:16.453Z,33.38
2022-08-14T15:14:53.957Z,33.29
2022-08-14T15:17:13.139Z,32.98
2022-08-14T15:20:03.645Z,32.93
2022-08-14T15:22:51.913Z,32.80
2022-08-14T15:25:40.085Z,32.93
2022-08-14T15:28:38.761Z,32.88
2022-08-14T15:31:27.103Z,32.83
2022-08-14T15:34:43.999Z,32.79
2022-08-14T15:37:32.767Z,32.52
2022-08-14T15:40:22.733Z,32.57
2022-08-14T15:43:12.856Z,32.54
2022-08-14T15:46:03.394Z,32.68
2022-08-14T15:48:51.542Z,32.88
2022-08-14T15:51:43.925Z,33.11
2022-08-14T15:54:33.791Z,33.62
2022-08-14T15:57:22.344Z,33.57
2022-08-14T16:00:43.545Z,33.40
2022-08-14T16:03:36.476Z,33.37
2022-08-14T16:06:30.255Z,32.95
2022-08-14T16:09:18.562Z,32.73
2022-08-14T16:12:10.207Z,32.45
2022-08-14T16:14:58.395Z,32.31
2022-08-14T16:17:47.454Z,32.42
2022-08-14T16:20:44.537Z,32.47
2022-08-14T16:23:36.172Z,32.66
2022-08-14T16:26:30.020Z,32.66
2022-08-14T16:29:21.225Z,32.58
2022-08-14T16:32:32.627Z,32.64
2022-08-14T16:35:22.028Z,32.43
2022-08-14T16:38:19.528Z,32.42
2022-08-14T16:41:32.321Z,32.38
2022-08-14T16:44:33.478Z,32.22
2022-08-14T16:47:22.630Z,32.28
2022-08-14T16:50:11.650Z,32.11
2022-08-14T16:53:03.607Z,32.21
2022-08-14T16:58:49.940Z,32.23
2022-08-14T17:01:44.046Z,32.03
2022-08-14T17:04:34.481Z,31.88
2022-08-14T17:07:29.456Z,31.64
2022-08-14T17:10:28.238Z,31.44
2022-08-14T17:13:18.081Z,31.28
2022-08-14T17:16:24.996Z,31.05
2022-08-14T17:19:17.677Z,30.79
2022-08-14T17:22:10.872Z,30.45
2022-08-14T17:25:03.999Z,30.19
2022-08-14T17:28:50.269Z,29.98
2022-08-14T17:31:20.996Z,29.66
2022-08-14T17:34:18.264Z,29.44
2022-08-14T17:37:06.931Z,29.27
2022-08-14T17:40:14.988Z,29.10
2022-08-14T17:43:04.342Z,28.88
2022-08-14T17:45:52.346Z,28.64
2022-08-14T17:49:14.400Z,28.43
2022-08-14T17:52:01.409Z,28.29
2022-08-14T17:54:52.703Z,28.15
2022-08-14T17:57:47.161Z,27.93
2022-08-14T18:00:39.499Z,27.77
2022-08-14T18:03:51.232Z,27.57
2022-08-14T18:06:58.782Z,27.37
2022-08-14T18:09:57.610Z,27.14
2022-08-14T18:12:48.609Z,26.90
2022-08-14T18:15:37.596Z,26.53
2022-08-14T18:18:25.818Z,26.46
2022-08-14T18:21:39.796Z,26.26
2022-08-14T18:24:31.781Z,26.04
2022-08-14T18:27:23.503Z,25.75
2022-08-14T18:30:33.105Z,25.64
2022-08-14T18:33:23.096Z,25.45
2022-08-14T18:36:47.915Z,25.29
2022-08-14T18:39:26.281Z,25.10
2022-08-14T18:42:44.256Z,24.86
2022-08-14T18:45:33.922Z,24.67
2022-08-14T18:48:50.760Z,24.53
2022-08-14T18:51:45.509Z,24.41
2022-08-14T18:54:38.081Z,24.28
2022-08-14T18:57:26.602Z,24.22
2022-08-14T19:00:51.932Z,24.11
2022-08-14T19:03:49.088Z,23.98
2022-08-14T19:06:43.298Z,23.89
2022-08-14T19:09:52.454Z,23.77
2022-08-14T19:13:02.958Z,23.60
2022-08-14T19:16:06.137Z,23.43
2022-08-14T19:19:00.378Z,23.34
2022-08-14T19:21:56.146Z,23.17
2022-08-14T19:24:45.240Z,23.03
2022-08-14T19:27:42.017Z,22.96
2022-08-14T19:30:32.446Z,22.88
2022-08-14T19:33:52.755Z,22.81
2022-08-14T19:37:04.305Z,22.72
2022-08-14T19:39:54.476Z,22.69
2022-08-14T19:42:47.231Z,22.67
2022-08-14T19:45:37.972Z,22.69
2022-08-14T19:48:26.017Z,22.62
2022-08-14T19:51:16.087Z,22.49
2022-08-14T19:54:13.222Z,22.44
2022-08-14T19:57:02.424Z,22.39
2022-08-14T20:00:00.311Z,22.36
2022-08-14T20:02:59.349Z,22.30
2022-08-14T20:06:00.368Z,22.22
2022-08-14T20:10:59.960Z,22.21
2022-08-14T20:12:28.728Z,22.17
2022-08-14T20:15:21.080Z,22.29
2022-08-14T20:18:22.171Z,22.70
2022-08-14T20:21:18.644Z,22.87
2022-08-14T20:24:30.979Z,22.86
2022-08-14T20:27:33.732Z,22.71
2022-08-14T20:30:35.363Z,22.60
2022-08-14T20:33:24.868Z,22.52
2022-08-14T20:36:16.196Z,22.60
2022-08-14T20:39:15.275Z,22.67
2022-08-14T20:42:30.223Z,22.68
2022-08-14T20:45:21.502Z,22.71
2022-08-14T20:48:12.471Z,22.74
2022-08-14T20:51:23.926Z,22.70
2022-08-14T20:54:15.232Z,22.51
2022-08-14T20:57:07.736Z,22.67
2022-08-14T20:59:57.731Z,22.69
2022-08-14T21:02:50.833Z,22.63
2022-08-14T21:05:39.094Z,22.60
2022-08-14T21:08:37.003Z,22.56
2022-08-14T21:11:28.058Z,22.52
2022-08-14T21:14:24.849Z,22.45
2022-08-14T21:17:15.112Z,22.45
2022-08-14T21:20:25.768Z,22.48
2022-08-14T21:23:17.247Z,22.45
2022-08-14T21:26:07.471Z,22.39
2022-08-14T21:28:56.831Z,22.39
2022-08-14T21:31:56.147Z,22.39
2022-08-14T21:34:54.949Z,22.37
2022-08-14T21:37:46.047Z,22.44
2022-08-14T21:40:41.953Z,22.50
2022-08-14T21:43:32.126Z,22.49
2022-08-14T21:46:20.981Z,22.53
2022-08-14T21:49:13.222Z,22.51
2022-08-14T21:52:50.619Z,22.65
2022-08-14T21:55:23.409Z,23.04
2022-08-14T21:58:54.133Z,23.30
2022-08-14T22:01:20.335Z,23.23
2022-08-14T22:04:33.664Z,23.09
2022-08-14T22:07:18.126Z,23.08
2022-08-14T22:10:07.413Z,22.86
2022-08-14T22:13:00.422Z,22.93
2022-08-14T22:15:51.142Z,22.87
2022-08-14T22:18:46.474Z,22.79
2022-08-14T22:21:34.577Z,22.79
2022-08-14T22:24:38.275Z,22.74
2022-08-14T22:27:32.570Z,22.70
2022-08-14T22:30:22.142Z,22.64
2022-08-14T22:33:13.264Z,22.89
2022-08-14T22:36:24.890Z,22.92
2022-08-14T22:39:14.478Z,22.85
2022-08-14T22:42:02.753Z,22.85
2022-08-14T22:45:11.378Z,23.04
2022-08-14T22:48:02.206Z,23.07
2022-08-14T22:50:53.740Z,23.00
2022-08-14T22:53:42.937Z,22.85
2022-08-14T22:56:31.458Z,22.87
2022-08-14T22:59:20.416Z,22.85
2022-08-14T23:02:30.296Z,22.91
2022-08-14T23:05:38.925Z,22.88
2022-08-14T23:08:56.207Z,22.93
2022-08-14T23:11:37.870Z,22.98
2022-08-14T23:14:26.827Z,22.99
2022-08-14T23:17:18.905Z,23.28
2022-08-14T23:20:18.817Z,23.63
2022-08-14T23:23:22.289Z,23.77
2022-08-14T23:26:49.302Z,23.87
2022-08-14T23:29:20.257Z,23.88
2022-08-14T23:32:18.719Z,23.92
2022-08-14T23:35:08.120Z,24.07
2022-08-14T23:38:02.639Z,23.60
2022-08-14T23:40:52.116Z,24.09
2022-08-14T23:43:43.864Z,23.97
2022-08-14T23:46:34.621Z,24.13
2022-08-14T23:49:23.086Z,24.19
2022-08-14T23:53:07.364Z,24.17
2022-08-14T23:55:19.239Z,24.02
2022-08-14T23:58:10.459Z,23.97
